Nearby METAR Reports

 

KIAD - Wash Dc/Dulles, Virginia, USA
Distance from station: ESE 7mi, 11km
Updated: Wed, 22-May-2024 9:52am EDT
Few Clouds
Few Clouds
 Wind from calm
Wind: Calm
Temperature: 75°F, 24°C
Dew Point: 63°F, 17°C
Humidity: 65%
Barometer: 29.99 inHg, 1015.6 hPa
Clouds: Few Clouds
Visibility: 10 miles, 16 km
Cloud details: Few Clouds 9500 ft
Few Clouds 14000 ft
2024/05/22 13:52 KIAD 221352Z 00000KT 10SM FEW095 FEW140 24/17 A2999 RMK AO2 SLP153 ACC S-OHD-NW T02440172
KJYO - Leesburg/Godfrey, Virginia, USA
Distance from station: N 7mi, 12km
Updated: Wed, 22-May-2024 10:15am EDT
Partly cloudy
Partly cloudy
 Wind from SSE
Wind: SSE 3 mph, 6 km/h
Temperature: 77°F, 25°C
Dew Point: 68°F, 20°C
Humidity: 74%
Barometer: 30.00 inHg, 1015.9 hPa
Clouds: Partly cloudy
Visibility: 10 miles, 16 km
Cloud details: Partly cloudy 9000 ft
2024/05/22 14:15 KJYO 221415Z AUTO 15003KT 10SM SCT090 25/20 A3000 RMK AO2
KHEF - Manassas Muni, Virginia, USA
Distance from station: S 17mi, 28km
Updated: Wed, 22-May-2024 9:56am EDT
Mostly cloudy
Mostly cloudy
 Wind from varies
Wind: varies 3 mph, 6 km/h
Temperature: 75°F, 24°C
Dew Point: 64°F, 18°C
Humidity: 69%
Barometer: 29.99 inHg, 1015.6 hPa
Clouds: Mostly cloudy
Visibility: 10 miles, 16 km
Cloud details: Mostly cloudy 10000 ft
2024/05/22 13:56 KHEF 221356Z VRB03KT 10SM BKN100 24/18 A2999 RMK AO2 SLP160 T02390183
 
KGAI - Gaithersburg, Maryland, USA
Distance from station: NE 26mi, 41km
Updated: Wed, 22-May-2024 9:56am EDT
Clear
Clear
 Wind from WSW
Wind: WSW 3 mph, 6 km/h
Temperature: 75°F, 24°C
Dew Point: 64°F, 18°C
Humidity: 69%
Barometer: 30.01 inHg, 1016.3 hPa
Clouds: Clear
Visibility: 10 miles, 16 km
2024/05/22 13:56 KGAI 221356Z AUTO 24003KT 10SM CLR 24/18 A3001 RMK AO2 SLP172 T02440178
KDAA - Fort Belvoir/Dav, Virginia, USA
Distance from station: SE 27mi, 44km
Updated: Wed, 22-May-2024 9:55am EDT
Clear
Clear
 Wind from SSW
Wind: SSW 3 mph, 6 km/h
Temperature: 75°F, 24°C
Dew Point: 64°F, 18°C
Humidity: 69%
Barometer: 29.97 inHg, 1014.9 hPa
Clouds: Clear
Visibility: 10 miles, 16 km
2024/05/22 13:55 KDAA 221355Z AUTO 20003KT 10SM CLR 24/18 A2997 RMK AO2 SLP151 T02390176 $
KHWY - Warrenton, Virginia, USA
Distance from station: SSW 27mi, 44km
Updated: Wed, 22-May-2024 10:15am EDT
Partly cloudy
Partly cloudy
 Wind from SW
Wind: SW 3 mph, 6 km/h
Temperature: 79°F, 26°C
Dew Point: 63°F, 17°C
Humidity: 58%
Barometer: 29.99 inHg, 1015.6 hPa
Clouds: Partly cloudy
Visibility: 10 miles, 16 km
Cloud details: Partly cloudy 9000 ft
2024/05/22 14:15 KHWY 221415Z AUTO 22003KT 10SM SCT090 26/17 A2999 RMK AO2 T02560170
 
KDCA - Washington/Natl, Washington D.c., USA
Distance from station: ESE 30mi, 48km
Updated: Wed, 22-May-2024 9:52am EDT
Few Clouds
Few Clouds
 Wind from S
Wind: S 9 mph, 15 km/h
Temperature: 75°F, 24°C
Dew Point: 64°F, 18°C
Humidity: 69%
Barometer: 29.99 inHg, 1015.6 hPa
Clouds: Few Clouds
Visibility: 10 miles, 16 km
Cloud details: Few Clouds 9000 ft
Few Clouds 25000 ft
2024/05/22 13:52 KDCA 221352Z 17008KT 10SM FEW090 FEW250 24/18 A2999 RMK AO2 SLP154 ACC W-NW T02390183
KFDK - Frederick, Maryland, USA
Distance from station: NNE 33mi, 53km
Updated: Wed, 22-May-2024 9:47am EDT
Clear
Clear
 Wind from calm
Wind: Calm
Temperature: 75°F, 24°C
Dew Point: 64°F, 18°C
Humidity: 69%
Barometer: 29.99 inHg, 1015.6 hPa
Clouds: Clear
Visibility: 10 miles, 16 km
2024/05/22 13:47 KFDK 221347Z 00000KT 10SM CLR 24/18 A2999
KOKV - Winchester Rgnl, Virginia, USA
Distance from station: WNW 33mi, 54km
Updated: Wed, 22-May-2024 10:15am EDT
Clear
Clear
 Wind from WSW
Wind: WSW 5 mph, 7 km/h
Temperature: 77°F, 25°C
Dew Point: 64°F, 18°C
Humidity: 65%
Barometer: 29.97 inHg, 1014.9 hPa
Clouds: Clear
Visibility: 10 miles, 16 km
2024/05/22 14:15 KOKV 221415Z AUTO 24004KT 10SM CLR 25/18 A2997 RMK AO2
 
KCJR - Culpeper, Virginia, USA
Distance from station: SSW 34mi, 54km
Updated: Wed, 22-May-2024 10:15am EDT
Clear
Clear
 Wind from calm
Wind: Calm
Temperature: 79°F, 26°C
Dew Point: 64°F, 18°C
Humidity: 61%
Barometer: 29.99 inHg, 1015.6 hPa
Clouds: Clear
Visibility: 10 miles, 16 km
2024/05/22 14:15 KCJR 221415Z AUTO 00000KT 10SM CLR 26/18 A2999 RMK AO2 T02580175
KCGS - College Park, Maryland, USA
Distance from station: E 35mi, 56km
Updated: Wed, 22-May-2024 10:25am EDT
Clear
Clear
 Wind from ESE
Wind: ESE 5 mph, 7 km/h
Temperature: 77°F, 25°C
Dew Point: 64°F, 18°C
Humidity: 65%
Barometer: 29.99 inHg, 1015.6 hPa
Clouds: Clear
Visibility: 10 miles, 16 km
2024/05/22 14:25 KCGS 221425Z AUTO 11004KT 10SM CLR 25/18 A2999 RMK AO2 T02460180
KNYG - Quantico Mcaf, Virginia, USA
Distance from station: SSE 35mi, 57km
Updated: Wed, 22-May-2024 9:56am EDT
Few Clouds
Few Clouds
 Wind from SSE
Wind: SSE 9 mph, 15 km/h
Temperature: 73°F, 23°C
Dew Point: 66°F, 19°C
Humidity: 78%
Barometer: 30.00 inHg, 1015.9 hPa
Clouds: Few Clouds
Visibility: 7 miles, 11 km
Cloud details: Few Clouds 9000 ft
2024/05/22 13:56 KNYG 221356Z 15008KT 7SM FEW090 23/19 A3000 RMK AO2 SLP159 T02330189 $
 
KFRR - Fort Royal, Virginia, USA
Distance from station: W 37mi, 59km
Updated: Wed, 22-May-2024 10:15am EDT
Clear
Clear
 Wind from SSW
Wind: SSW 8 mph, 13 km/h
Temperature: 79°F, 26°C
Dew Point: 64°F, 18°C
Humidity: 61%
Barometer: 29.97 inHg, 1014.9 hPa
Clouds: Clear
Visibility: 10 miles, 16 km
2024/05/22 14:15 KFRR 221415Z AUTO 20007KT 10SM CLR 26/18 A2997 RMK AO1
KMRB - Martinsburg, West Virginia, USA
Distance from station: NW 38mi, 61km
Updated: Wed, 22-May-2024 9:53am EDT
Clear
Clear
 Wind from varies
Wind: varies 5 mph, 7 km/h
Temperature: 73°F, 23°C
Dew Point: 64°F, 18°C
Humidity: 74%
Barometer: 29.97 inHg, 1014.9 hPa
Clouds: Clear
Visibility: 10 miles, 16 km
2024/05/22 13:53 KMRB 221353Z VRB04KT 10SM CLR 23/18 A2997 RMK AO2 SLP145 T02330178
KADW - Andrews Afb, Maryland, USA
Distance from station: ESE 39mi, 63km
Updated: Wed, 22-May-2024 9:55am EDT
Clear
Clear
 Wind from S
Wind: S 6 mph, 9 km/h
Temperature: 79°F, 26°C
Dew Point: 64°F, 18°C
Humidity: 61%
Barometer: 29.97 inHg, 1014.9 hPa
Clouds: Clear
Visibility: 10 miles, 16 km
2024/05/22 13:55 KADW 221355Z AUTO 19005KT 10SM CLR 26/18 A2997 RMK AO2 SLP154 T02550179 $
 
KRMN - Stafford Regnl, Virginia, USA
Distance from station: S 39mi, 63km
Updated: Wed, 22-May-2024 10:15am EDT
Clear
Clear
 Wind from SW
Wind: SW 6 mph, 9 km/h
Temperature: 79°F, 26°C
Dew Point: 61°F, 16°C
Humidity: 54%
Barometer: 29.99 inHg, 1015.6 hPa
Clouds: Clear
Visibility: 10 miles, 16 km
2024/05/22 14:15 KRMN 221415Z AUTO 23005KT 10SM CLR 26/16 A2999 RMK AO2 T02560164
KFME - Fort Meade, Maryland, USA
Distance from station: ENE 44mi, 70km
Updated: Wed, 22-May-2024 10:29am EDT
Clear
Clear
 Wind from SW
Wind: SW 3 mph, 6 km/h
Temperature: 75°F, 24°C
Dew Point: 64°F, 18°C
Humidity: 69%
Barometer: 30.01 inHg, 1016.3 hPa
Clouds: Clear
Visibility: 10 miles, 16 km
2024/05/22 14:29 KFME 221429Z AUTO 22003KT 10SM CLR 24/18 A3001 RMK AO1
KRSP - Nsf Thurmont, Maryland, USA
Distance from station: N 48mi, 77km
Updated: Wed, 22-May-2024 9:54am EDT
Clear
Clear
 Wind from varies
Wind: varies 5 mph, 7 km/h
Temperature: 73°F, 23°C
Dew Point: 63°F, 17°C
Humidity: 69%
Barometer: 30.03 inHg, 1016.9 hPa
Clouds: Clear
Visibility: 10 miles, 16 km
2024/05/22 13:54 KRSP 221354Z AUTO VRB04KT 10SM CLR 23/17 A3003 RMK AO2 SLP160 T02280172 PWINO $
 
KEZF - Fredericksb/Shan, Virginia, USA
Distance from station: S 48mi, 78km
Updated: Wed, 22-May-2024 10:15am EDT
Clear
Clear
 Wind from SSW
Wind: SSW 9 mph, 15 km/h
Temperature: 79°F, 26°C
Dew Point: 64°F, 18°C
Humidity: 61%
Barometer: 29.98 inHg, 1015.2 hPa
Clouds: Clear
Visibility: 10 miles, 16 km
2024/05/22 14:15 KEZF 221415Z AUTO 21008KT 10SM CLR 26/18 A2998 RMK AO2 T02600175
KBWI - Balto/Wash Intl, Maryland, USA
Distance from station: ENE 49mi, 80km
Updated: Wed, 22-May-2024 9:54am EDT
Few Clouds
Few Clouds
 Wind from varies
Wind: varies 3 mph, 6 km/h
Temperature: 73°F, 23°C
Dew Point: 64°F, 18°C
Humidity: 74%
Barometer: 29.99 inHg, 1015.6 hPa
Clouds: Few Clouds
Visibility: 10 miles, 16 km
Cloud details: Few Clouds 5500 ft
Few Clouds 10000 ft
Few Clouds 25000 ft
2024/05/22 13:54 KBWI 221354Z VRB03KT 10SM FEW055 FEW100 FEW250 23/18 A2999 RMK AO2 SLP152 T02330178

Free counters!